sensor_id;sensor_type;location;lat;lon;timestamp;pressure;altitude;pressure_sealevel;temperature;humidity
55858;BME280;41779;52.360;31.026;2024-02-21T00:00:07;1026.6;;;2.4;71.7
55858;BME280;41779;52.360;31.026;2024-02-21T00:05:07;1026.5;;;2.3;72.2
55858;BME280;41779;52.360;31.026;2024-02-21T00:09:52;1026.5;;;2.3;72.2
55858;BME280;41779;52.360;31.026;2024-02-21T00:15:07;1026.5;;;2.5;72
55858;BME280;41779;52.360;31.026;2024-02-21T00:19:14;1026.5;;;2.5;72
55858;BME280;41779;52.360;31.026;2024-02-21T00:24:14;1026.5;;;2.5;72.1
55858;BME280;41779;52.360;31.026;2024-02-21T00:29:30;1026.5;;;2.5;72
55858;BME280;41779;52.360;31.026;2024-02-21T00:34:26;1026.4;;;2.5;72
55858;BME280;41779;52.360;31.026;2024-02-21T00:39:40;1026.4;;;2.6;72
55858;BME280;41779;52.360;31.026;2024-02-21T00:44:36;1026.3;;;2.6;72.1
55858;BME280;41779;52.360;31.026;2024-02-21T00:49:22;1026.2;;;2.6;72
55858;BME280;41779;52.360;31.026;2024-02-21T00:55:05;1026.2;;;2.8;71.8
55858;BME280;41779;52.360;31.026;2024-02-21T00:59:50;1026.2;;;2.8;71.8
55858;BME280;41779;52.360;31.026;2024-02-21T01:04:22;1026.1;;;2.8;71.8
55858;BME280;41779;52.360;31.026;2024-02-21T01:09:14;1026.1;;;2.9;71.6
55858;BME280;41779;52.360;31.026;2024-02-21T01:14:44;1026.1;;;2.9;71.6
55858;BME280;41779;52.360;31.026;2024-02-21T01:19:54;1026;;;2.9;71.5
55858;BME280;41779;52.360;31.026;2024-02-21T01:24:22;1026;;;3;71.4
55858;BME280;41779;52.360;31.026;2024-02-21T01:29:54;1026;;;3.1;71.2
55858;BME280;41779;52.360;31.026;2024-02-21T01:34:16;1026;;;3.1;71.2
55858;BME280;41779;52.360;31.026;2024-02-21T01:40:07;1026;;;3.2;71.1
55858;BME280;41779;52.360;31.026;2024-02-21T01:44:53;1026;;;3.2;71.1
55858;BME280;41779;52.360;31.026;2024-02-21T01:50:07;1026;;;3.3;71.1
55858;BME280;41779;52.360;31.026;2024-02-21T01:54:22;1026;;;3.3;71.1
55858;BME280;41779;52.360;31.026;2024-02-21T01:59:15;1025.9;;;3.3;71
55858;BME280;41779;52.360;31.026;2024-02-21T02:04:23;1025.9;;;3.3;71.1
55858;BME280;41779;52.360;31.026;2024-02-21T02:09:34;1025.9;;;3.3;71.1
55858;BME280;41779;52.360;31.026;2024-02-21T02:14:14;1025.9;;;3.3;71.2
55858;BME280;41779;52.360;31.026;2024-02-21T02:19:44;1025.9;;;3.3;71.2
55858;BME280;41779;52.360;31.026;2024-02-21T02:24:14;1025.8;;;3.4;71.3
55858;BME280;41779;52.360;31.026;2024-02-21T02:30:05;1025.9;;;3.4;71.3
55858;BME280;41779;52.360;31.026;2024-02-21T02:34:51;1025.9;;;3.4;71.3
55858;BME280;41779;52.360;31.026;2024-02-21T02:39:30;1025.9;;;3.5;71.2
55858;BME280;41779;52.360;31.026;2024-02-21T02:44:43;1025.9;;;3.5;71.2
55858;BME280;41779;52.360;31.026;2024-02-21T02:49:45;1025.9;;;3.6;71
55858;BME280;41779;52.360;31.026;2024-02-21T02:55:07;1025.9;;;3.7;71
55858;BME280;41779;52.360;31.026;2024-02-21T02:59:35;1025.9;;;3.7;71
55858;BME280;41779;52.360;31.026;2024-02-21T03:05:01;1025.9;;;3.7;71.1
55858;BME280;41779;52.360;31.026;2024-02-21T03:09:25;1025.9;;;3.7;71
55858;BME280;41779;52.360;31.026;2024-02-21T03:15:05;1025.9;;;3.7;71.2
55858;BME280;41779;52.360;31.026;2024-02-21T03:19:55;1025.9;;;3.7;71.2
55858;BME280;41779;52.360;31.026;2024-02-21T03:24:55;1026;;;3.7;71.3
55858;BME280;41779;52.360;31.026;2024-02-21T03:29:41;1026;;;3.8;71.3
55858;BME280;41779;52.360;31.026;2024-02-21T03:34:15;1025.9;;;3.8;71.3
55858;BME280;41779;52.360;31.026;2024-02-21T03:39:41;1026;;;3.8;71.4
55858;BME280;41779;52.360;31.026;2024-02-21T03:44:15;1026;;;3.9;71.3
55858;BME280;41779;52.360;31.026;2024-02-21T03:49:45;1026;;;3.9;71.3
55858;BME280;41779;52.360;31.026;2024-02-21T03:54:45;1026;;;3.9;71.2
55858;BME280;41779;52.360;31.026;2024-02-21T03:59:53;1026;;;3.9;71.3
55858;BME280;41779;52.360;31.026;2024-02-21T04:05:05;1026.1;;;4;71.5
55858;BME280;41779;52.360;31.026;2024-02-21T04:10:05;1026.1;;;4;71.4
55858;BME280;41779;52.360;31.026;2024-02-21T04:14:23;1026.1;;;4;71.4
55858;BME280;41779;52.360;31.026;2024-02-21T04:19:47;1026.1;;;4;71.7
55858;BME280;41779;52.360;31.026;2024-02-21T04:25:05;1026.1;;;4;71.9
55858;BME280;41779;52.360;31.026;2024-02-21T04:29:55;1026.1;;;4;71.9
55858;BME280;41779;52.360;31.026;2024-02-21T04:34:23;1026.2;;;4;72
55858;BME280;41779;52.360;31.026;2024-02-21T04:39:17;1026.1;;;4.1;72
55858;BME280;41779;52.360;31.026;2024-02-21T04:44:27;1026.1;;;4.1;72
55858;BME280;41779;52.360;31.026;2024-02-21T04:50:05;1026.2;;;4.1;72.2
55858;BME280;41779;52.360;31.026;2024-02-21T04:54:33;1026.2;;;4.1;72.2
55858;BME280;41779;52.360;31.026;2024-02-21T05:00:05;1026.3;;;4.1;72.4
55858;BME280;41779;52.360;31.026;2024-02-21T05:04:23;1026.3;;;4.1;72.4
55858;BME280;41779;52.360;31.026;2024-02-21T05:09:33;1026.4;;;4;72.5
55858;BME280;41779;52.360;31.026;2024-02-21T05:14:47;1026.4;;;4;72.5
55858;BME280;41779;52.360;31.026;2024-02-21T05:19:31;1026.4;;;3.9;73.2
55858;BME280;41779;52.360;31.026;2024-02-21T05:24:39;1026.4;;;3.9;72.9
55858;BME280;41779;52.360;31.026;2024-02-21T05:29:49;1026.5;;;3.9;73.2
55858;BME280;41779;52.360;31.026;2024-02-21T05:34:21;1026.5;;;4;72.9
55858;BME280;41779;52.360;31.026;2024-02-21T05:39:41;1026.5;;;4;72.9
55858;BME280;41779;52.360;31.026;2024-02-21T05:45:05;1026.6;;;4;72.8
55858;BME280;41779;52.360;31.026;2024-02-21T05:49:51;1026.6;;;4;72.8
55858;BME280;41779;52.360;31.026;2024-02-21T05:54:51;1026.6;;;4;72.9
55858;BME280;41779;52.360;31.026;2024-02-21T05:59:49;1026.6;;;4.1;72.7
55858;BME280;41779;52.360;31.026;2024-02-21T06:04:53;1026.7;;;4;72.5
55858;BME280;41779;52.360;31.026;2024-02-21T06:09:41;1026.7;;;4;72.3
55858;BME280;41779;52.360;31.026;2024-02-21T06:14:51;1026.7;;;4.1;72.2
55858;BME280;41779;52.360;31.026;2024-02-21T06:20:03;1026.8;;;4.2;72
55858;BME280;41779;52.360;31.026;2024-02-21T06:25:03;1026.9;;;4.3;71.8
55858;BME280;41779;52.360;31.026;2024-02-21T06:29:39;1026.9;;;4.3;71.8
55858;BME280;41779;52.360;31.026;2024-02-21T06:35:03;1027;;;4.3;71.8
55858;BME280;41779;52.360;31.026;2024-02-21T06:39:39;1027;;;4.3;71.8
55858;BME280;41779;52.360;31.026;2024-02-21T06:44:49;1027;;;4.3;71.7
55858;BME280;41779;52.360;31.026;2024-02-21T06:49:15;1027;;;4.3;71.5
55858;BME280;41779;52.360;31.026;2024-02-21T06:54:15;1027;;;4.3;71.3
55858;BME280;41779;52.360;31.026;2024-02-21T06:59:16;1027;;;4.3;71.2
55858;BME280;41779;52.360;31.026;2024-02-21T07:04:23;1027.1;;;4.4;71.4
55858;BME280;41779;52.360;31.026;2024-02-21T07:09:23;1027.1;;;4.4;71.2
55858;BME280;41779;52.360;31.026;2024-02-21T07:14:23;1027.1;;;4.5;71.3
55858;BME280;41779;52.360;31.026;2024-02-21T07:20:05;1027.1;;;4.7;70.6
55858;BME280;41779;52.360;31.026;2024-02-21T07:24:49;1027.1;;;4.7;70.6
55858;BME280;41779;52.360;31.026;2024-02-21T07:30:05;1027.1;;;4.8;70.4
55858;BME280;41779;52.360;31.026;2024-02-21T07:34:51;1027.1;;;4.8;70.4
55858;BME280;41779;52.360;31.026;2024-02-21T07:39:53;1027.1;;;4.9;70.2
55858;BME280;41779;52.360;31.026;2024-02-21T07:44:27;1027.1;;;4.9;70.3
55858;BME280;41779;52.360;31.026;2024-02-21T07:49:17;1027.1;;;5;69.7
55858;BME280;41779;52.360;31.026;2024-02-21T07:55:05;1027.2;;;5;69.7
55858;BME280;41779;52.360;31.026;2024-02-21T08:00:05;1027.2;;;5;69.5
55858;BME280;41779;52.360;31.026;2024-02-21T08:04:31;1027.2;;;5;69.5
55858;BME280;41779;52.360;31.026;2024-02-21T08:10:05;1027.2;;;5;69.3
55858;BME280;41779;52.360;31.026;2024-02-21T08:14:53;1027.2;;;5;69.3
55858;BME280;41779;52.360;31.026;2024-02-21T08:19:51;1027.3;;;5.1;69.3
55858;BME280;41779;52.360;31.026;2024-02-21T08:24:57;1027.3;;;5.1;69.1
55858;BME280;41779;52.360;31.026;2024-02-21T08:29:33;1027.3;;;5.2;68.7
55858;BME280;41779;52.360;31.026;2024-02-21T08:34:27;1027.3;;;5.2;68.6
55858;BME280;41779;52.360;31.026;2024-02-21T08:39:29;1027.3;;;5.1;68.4
55858;BME280;41779;52.360;31.026;2024-02-21T08:44:27;1027.4;;;5.2;68.5
55858;BME280;41779;52.360;31.026;2024-02-21T08:49:15;1027.4;;;5.2;68.4
55858;BME280;41779;52.360;31.026;2024-02-21T08:54:45;1027.5;;;5.3;68
55858;BME280;41779;52.360;31.026;2024-02-21T08:59:33;1027.5;;;5.4;67.8
55858;BME280;41779;52.360;31.026;2024-02-21T09:05:05;1027.6;;;5.4;66.8
55858;BME280;41779;52.360;31.026;2024-02-21T09:10:01;1027.6;;;5.4;66.8
55858;BME280;41779;52.360;31.026;2024-02-21T09:14:31;1027.7;;;5.4;67
55858;BME280;41779;52.360;31.026;2024-02-21T09:19:33;1027.7;;;5.4;66.4
55858;BME280;41779;52.360;31.026;2024-02-21T09:24:53;1027.7;;;5.5;66.6
55858;BME280;41779;52.360;31.026;2024-02-21T09:29:17;1027.7;;;5.5;65.9
55858;BME280;41779;52.360;31.026;2024-02-21T09:34:35;1027.7;;;5.7;65.5
55858;BME280;41779;52.360;31.026;2024-02-21T09:40:05;1027.7;;;5.9;64.4
55858;BME280;41779;52.360;31.026;2024-02-21T09:44:43;1027.7;;;5.9;64.4
55858;BME280;41779;52.360;31.026;2024-02-21T09:49:53;1027.7;;;5.9;64.1
55858;BME280;41779;52.360;31.026;2024-02-21T09:54:23;1027.7;;;6;63.9
55858;BME280;41779;52.360;31.026;2024-02-21T09:59:53;1027.7;;;5.8;62.9
55858;BME280;41779;52.360;31.026;2024-02-21T10:04:31;1027.7;;;5.8;63.3
55858;BME280;41779;52.360;31.026;2024-02-21T10:09:27;1027.6;;;5.7;63.1
55858;BME280;41779;52.360;31.026;2024-02-21T10:14:59;1027.7;;;5.6;63.3
55858;BME280;41779;52.360;31.026;2024-02-21T10:19:35;1027.7;;;5.6;63.7
55858;BME280;41779;52.360;31.026;2024-02-21T10:24:37;1027.7;;;5.5;64.2
55858;BME280;41779;52.360;31.026;2024-02-21T10:29:15;1027.7;;;5.6;64.6
55858;BME280;41779;52.360;31.026;2024-02-21T10:34:25;1027.6;;;5.6;64.3
55858;BME280;41779;52.360;31.026;2024-02-21T10:40:05;1027.6;;;5.8;64.3
55858;BME280;41779;52.360;31.026;2024-02-21T10:45:05;1027.7;;;5.8;63.8
55858;BME280;41779;52.360;31.026;2024-02-21T10:50:05;1027.7;;;5.8;63.9
55858;BME280;41779;52.360;31.026;2024-02-21T10:55:03;1027.7;;;5.8;63.9
55858;BME280;41779;52.360;31.026;2024-02-21T11:00:05;1027.7;;;5.7;63.9
55858;BME280;41779;52.360;31.026;2024-02-21T11:04:55;1027.7;;;5.7;63.9
55858;BME280;41779;52.360;31.026;2024-02-21T11:09:35;1027.6;;;5.8;63.9
55858;BME280;41779;52.360;31.026;2024-02-21T11:15:05;1027.7;;;5.8;63.7
55858;BME280;41779;52.360;31.026;2024-02-21T11:19:27;1027.7;;;5.8;63.7
55858;BME280;41779;52.360;31.026;2024-02-21T11:25:06;1027.7;;;6;63.3
55858;BME280;41779;52.360;31.026;2024-02-21T11:29:23;1027.7;;;6;63.3
55858;BME280;41779;52.360;31.026;2024-02-21T11:34:55;1027.7;;;5.9;63.3
55858;BME280;41779;52.360;31.026;2024-02-21T11:39:19;1027.7;;;6;63.6
55858;BME280;41779;52.360;31.026;2024-02-21T11:44:15;1027.7;;;6;63.3
55858;BME280;41779;52.360;31.026;2024-02-21T11:49:49;1027.7;;;6;63.5
55858;BME280;41779;52.360;31.026;2024-02-21T11:54:33;1027.7;;;6;63.6
55858;BME280;41779;52.360;31.026;2024-02-21T11:59:35;1027.7;;;6;63
55858;BME280;41779;52.360;31.026;2024-02-21T12:04:23;1027.7;;;5.9;62.9
55858;BME280;41779;52.360;31.026;2024-02-21T12:09:53;1027.7;;;5.9;63.1
55858;BME280;41779;52.360;31.026;2024-02-21T12:15:05;1027.7;;;5.8;62.9
55858;BME280;41779;52.360;31.026;2024-02-21T12:20:05;1027.7;;;5.7;63.2
55858;BME280;41779;52.360;31.026;2024-02-21T12:24:35;1027.7;;;5.7;63.2
55858;BME280;41779;52.360;31.026;2024-02-21T12:29:45;1027.8;;;5.8;63.4
55858;BME280;41779;52.360;31.026;2024-02-21T12:35:03;1027.7;;;5.6;64
55858;BME280;41779;52.360;31.026;2024-02-21T12:39:53;1027.7;;;5.6;64
55858;BME280;41779;52.360;31.026;2024-02-21T12:44:45;1027.8;;;5.5;64.4
55858;BME280;41779;52.360;31.026;2024-02-21T12:49:45;1027.8;;;5.5;64.9
55858;BME280;41779;52.360;31.026;2024-02-21T12:54:35;1027.9;;;5.5;64.8
55858;BME280;41779;52.360;31.026;2024-02-21T13:00:05;1027.9;;;5.5;65.1
55858;BME280;41779;52.360;31.026;2024-02-21T13:04:43;1027.9;;;5.5;65.1
55858;BME280;41779;52.360;31.026;2024-02-21T13:10:05;1027.9;;;5.6;65.2
55858;BME280;41779;52.360;31.026;2024-02-21T13:14:51;1027.9;;;5.6;65.2
55858;BME280;41779;52.360;31.026;2024-02-21T13:19:35;1027.8;;;5.6;65
55858;BME280;41779;52.360;31.026;2024-02-21T13:24:15;1027.9;;;5.6;65
55858;BME280;41779;52.360;31.026;2024-02-21T13:29:15;1027.9;;;5.5;65.2
55858;BME280;41779;52.360;31.026;2024-02-21T13:34:15;1027.9;;;5.5;65.2
55858;BME280;41779;52.360;31.026;2024-02-21T13:39:15;1027.9;;;5.5;65.3
55858;BME280;41779;52.360;31.026;2024-02-21T13:44:15;1027.9;;;5.5;65.5
55858;BME280;41779;52.360;31.026;2024-02-21T13:49:51;1027.9;;;5.5;65.4
55858;BME280;41779;52.360;31.026;2024-02-21T13:54:57;1027.9;;;5.5;65.4
55858;BME280;41779;52.360;31.026;2024-02-21T13:59:31;1027.9;;;5.6;65.3
55858;BME280;41779;52.360;31.026;2024-02-21T14:05:07;1027.9;;;5.6;65.5
55858;BME280;41779;52.360;31.026;2024-02-21T14:09:53;1027.9;;;5.6;65.5
55858;BME280;41779;52.360;31.026;2024-02-21T14:15:07;1027.9;;;5.6;65.5
55858;BME280;41779;52.360;31.026;2024-02-21T14:19:27;1027.9;;;5.6;65.5
55858;BME280;41779;52.360;31.026;2024-02-21T14:24:55;1028;;;5.6;65.6
55858;BME280;41779;52.360;31.026;2024-02-21T14:30:07;1028;;;5.6;65.8
55858;BME280;41779;52.360;31.026;2024-02-21T14:35:07;1028.1;;;5.7;65.7
55858;BME280;41779;52.360;31.026;2024-02-21T14:39:15;1028.1;;;5.7;65.7
55858;BME280;41779;52.360;31.026;2024-02-21T14:44:51;1028.1;;;5.7;65.7
55858;BME280;41779;52.360;31.026;2024-02-21T14:50:05;1028.2;;;5.7;65.9
55858;BME280;41779;52.360;31.026;2024-02-21T14:54:33;1028.2;;;5.7;65.9
55858;BME280;41779;52.360;31.026;2024-02-21T15:00:06;1028.2;;;5.7;66.1
55858;BME280;41779;52.360;31.026;2024-02-21T15:04:15;1028.2;;;5.7;66.1
55858;BME280;41779;52.360;31.026;2024-02-21T15:09:27;1028.2;;;5.7;66.1
55858;BME280;41779;52.360;31.026;2024-02-21T15:29:35;1028.2;;;5.7;66.3
55858;BME280;41779;52.360;31.026;2024-02-21T15:34:37;1028.2;;;5.6;66.6
55858;BME280;41779;52.360;31.026;2024-02-21T15:40:05;1028.2;;;5.6;67
55858;BME280;41779;52.360;31.026;2024-02-21T15:44:19;1028.2;;;5.6;67
55858;BME280;41779;52.360;31.026;2024-02-21T15:49:15;1028.2;;;5.5;67
55858;BME280;41779;52.360;31.026;2024-02-21T15:54:23;1028.2;;;5.5;67.3
55858;BME280;41779;52.360;31.026;2024-02-21T15:59:45;1028.2;;;5.5;67.2
55858;BME280;41779;52.360;31.026;2024-02-21T16:04:55;1028.2;;;5.5;67.3
55858;BME280;41779;52.360;31.026;2024-02-21T16:09:25;1028.2;;;5.5;67.4
55858;BME280;41779;52.360;31.026;2024-02-21T16:14:43;1028.2;;;5.5;67.4
55858;BME280;41779;52.360;31.026;2024-02-21T16:19:17;1028.2;;;5.5;67.4
55858;BME280;41779;52.360;31.026;2024-02-21T16:25:07;1028.2;;;5.5;67.4
55858;BME280;41779;52.360;31.026;2024-02-21T16:29:15;1028.2;;;5.5;67.4
55858;BME280;41779;52.360;31.026;2024-02-21T16:35:07;1028.2;;;5.5;67.6
55858;BME280;41779;52.360;31.026;2024-02-21T16:39:15;1028.2;;;5.5;67.6
55858;BME280;41779;52.360;31.026;2024-02-21T16:44:29;1028.2;;;5.5;67.6
55858;BME280;41779;52.360;31.026;2024-02-21T16:49:15;1028.2;;;5.5;67.7
55858;BME280;41779;52.360;31.026;2024-02-21T16:54:47;1028.2;;;5.6;67.6
55858;BME280;41779;52.360;31.026;2024-02-21T16:59:23;1028.2;;;5.5;67.6
55858;BME280;41779;52.360;31.026;2024-02-21T17:04:47;1028.2;;;5.6;67.6
55858;BME280;41779;52.360;31.026;2024-02-21T17:09:31;1028.3;;;5.6;67.5
55858;BME280;41779;52.360;31.026;2024-02-21T17:14:53;1028.2;;;5.6;67.6
55858;BME280;41779;52.360;31.026;2024-02-21T17:19:51;1028.2;;;5.5;67.7
55858;BME280;41779;52.360;31.026;2024-02-21T17:24:35;1028.2;;;5.5;67.9
55858;BME280;41779;52.360;31.026;2024-02-21T17:29:23;1028.2;;;5.5;67.9
55858;BME280;41779;52.360;31.026;2024-02-21T17:34:47;1028.2;;;5.4;68.2
55858;BME280;41779;52.360;31.026;2024-02-21T17:39:57;1028.2;;;5.4;68.3
55858;BME280;41779;52.360;31.026;2024-02-21T17:44:37;1028.2;;;5.4;68.2
55858;BME280;41779;52.360;31.026;2024-02-21T17:49:57;1028.1;;;5.4;68.3
55858;BME280;41779;52.360;31.026;2024-02-21T17:54:51;1028.1;;;5.4;68.2
55858;BME280;41779;52.360;31.026;2024-02-21T18:00:07;1028;;;5.4;68.3
55858;BME280;41779;52.360;31.026;2024-02-21T18:04:41;1028;;;5.4;68.3
55858;BME280;41779;52.360;31.026;2024-02-21T18:09:57;1028;;;5.4;68.4
55858;BME280;41779;52.360;31.026;2024-02-21T18:14:41;1028;;;5.4;68.4
55858;BME280;41779;52.360;31.026;2024-02-21T18:19:37;1028;;;5.4;68.5
55858;BME280;41779;52.360;31.026;2024-02-21T18:24:41;1027.9;;;5.4;68.5
55858;BME280;41779;52.360;31.026;2024-02-21T18:29:29;1027.8;;;5.4;68.7
55858;BME280;41779;52.360;31.026;2024-02-21T18:35:07;1027.8;;;5.2;69.2
55858;BME280;41779;52.360;31.026;2024-02-21T18:39:47;1027.8;;;5.2;69.2
55858;BME280;41779;52.360;31.026;2024-02-21T18:44:51;1027.8;;;5.2;69.2
55858;BME280;41779;52.360;31.026;2024-02-21T18:50:07;1027.7;;;5.1;69.7
55858;BME280;41779;52.360;31.026;2024-02-21T18:55:07;1027.6;;;5.1;69.6
55858;BME280;41779;52.360;31.026;2024-02-21T18:59:15;1027.6;;;5.1;69.6
55858;BME280;41779;52.360;31.026;2024-02-21T19:04:37;1027.6;;;5;70.1
55858;BME280;41779;52.360;31.026;2024-02-21T19:10:07;1027.5;;;5;70.1
55858;BME280;41779;52.360;31.026;2024-02-21T19:14:23;1027.5;;;5;70.1
55858;BME280;41779;52.360;31.026;2024-02-21T19:19:15;1027.5;;;4.9;70.5
55858;BME280;41779;52.360;31.026;2024-02-21T19:24:49;1027.2;;;4.9;70.3
55858;BME280;41779;52.360;31.026;2024-02-21T19:29:37;1027.4;;;4.8;71
55858;BME280;41779;52.360;31.026;2024-02-21T19:35:07;1027.6;;;4.9;70.7
55858;BME280;41779;52.360;31.026;2024-02-21T19:39:41;1027.6;;;4.9;70.7
55858;BME280;41779;52.360;31.026;2024-02-21T19:44:53;1027.6;;;5;70.5
55858;BME280;41779;52.360;31.026;2024-02-21T19:49:41;1027.5;;;5;70.4
55858;BME280;41779;52.360;31.026;2024-02-21T19:54:51;1027.5;;;5.1;70.3
55858;BME280;41779;52.360;31.026;2024-02-21T19:59:23;1027.5;;;5.2;70.2
55858;BME280;41779;52.360;31.026;2024-02-21T20:04:31;1027.5;;;5.1;70.1
55858;BME280;41779;52.360;31.026;2024-02-21T20:09:23;1027.4;;;5.2;70.2
55858;BME280;41779;52.360;31.026;2024-02-21T20:14:15;1027.4;;;5.2;70.1
55858;BME280;41779;52.360;31.026;2024-02-21T20:19:23;1027.4;;;5.1;70.2
55858;BME280;41779;52.360;31.026;2024-02-21T20:24:31;1027.4;;;5.1;70.2
55858;BME280;41779;52.360;31.026;2024-02-21T20:30:07;1027.3;;;5.1;70.2
55858;BME280;41779;52.360;31.026;2024-02-21T20:34:23;1027.3;;;5.1;70.2
55858;BME280;41779;52.360;31.026;2024-02-21T20:40:07;1027.3;;;5.1;70.4
55858;BME280;41779;52.360;31.026;2024-02-21T20:44:37;1027.3;;;5.1;70.4
55858;BME280;41779;52.360;31.026;2024-02-21T20:49:57;1027.2;;;5.1;70.4
55858;BME280;41779;52.360;31.026;2024-02-21T20:54:15;1027.2;;;5.1;70.4
55858;BME280;41779;52.360;31.026;2024-02-21T20:59:31;1027.2;;;5;70.6
55858;BME280;41779;52.360;31.026;2024-02-21T21:05:05;1027.1;;;5;70.8
55858;BME280;41779;52.360;31.026;2024-02-21T21:09:47;1027.1;;;5;70.8
55858;BME280;41779;52.360;31.026;2024-02-21T21:14:39;1027.2;;;5;70.9
55858;BME280;41779;52.360;31.026;2024-02-21T21:20:05;1027.2;;;5.1;70.8
55858;BME280;41779;52.360;31.026;2024-02-21T21:24:15;1027.2;;;5.1;70.8
55858;BME280;41779;52.360;31.026;2024-02-21T21:29:49;1027.2;;;5.1;71
55858;BME280;41779;52.360;31.026;2024-02-21T21:34:31;1027.1;;;5.1;70.8
55858;BME280;41779;52.360;31.026;2024-02-21T21:39:21;1027.1;;;5.1;71.1
55858;BME280;41779;52.360;31.026;2024-02-21T21:44:15;1027.1;;;5.2;70.9
55858;BME280;41779;52.360;31.026;2024-02-21T21:49:25;1027.1;;;5.2;71
55858;BME280;41779;52.360;31.026;2024-02-21T21:54:55;1027;;;5.2;71
55858;BME280;41779;52.360;31.026;2024-02-21T21:59:15;1027;;;5.2;70.9
55858;BME280;41779;52.360;31.026;2024-02-21T22:05:05;1027;;;5.2;71
55858;BME280;41779;52.360;31.026;2024-02-21T22:09:15;1027;;;5.2;71
55858;BME280;41779;52.360;31.026;2024-02-21T22:15:05;1027.1;;;5.2;71.1
55858;BME280;41779;52.360;31.026;2024-02-21T22:19:41;1027.1;;;5.2;71.1
55858;BME280;41779;52.360;31.026;2024-02-21T22:24:55;1027.1;;;5.3;71
55858;BME280;41779;52.360;31.026;2024-02-21T22:29:15;1027.1;;;5.3;71
55858;BME280;41779;52.360;31.026;2024-02-21T22:34:47;1027;;;5.3;71.1
55858;BME280;41779;52.360;31.026;2024-02-21T22:40:07;1026.9;;;5.3;71.1
55858;BME280;41779;52.360;31.026;2024-02-21T22:45:07;1026.9;;;5.3;71
55858;BME280;41779;52.360;31.026;2024-02-21T22:49:23;1026.9;;;5.3;71
55858;BME280;41779;52.360;31.026;2024-02-21T22:55:07;1026.9;;;5.3;71.3
55858;BME280;41779;52.360;31.026;2024-02-21T23:00:07;1026.9;;;5.3;71.2
55858;BME280;41779;52.360;31.026;2024-02-21T23:04:53;1026.9;;;5.3;71.2
55858;BME280;41779;52.360;31.026;2024-02-21T23:10:09;1026.8;;;5.2;71.6
55858;BME280;41779;52.360;31.026;2024-02-21T23:14:23;1026.8;;;5.2;71.6
55858;BME280;41779;52.360;31.026;2024-02-21T23:19:15;1026.7;;;5.2;71.6
55858;BME280;41779;52.360;31.026;2024-02-21T23:24:23;1026.6;;;5.2;71.8
55858;BME280;41779;52.360;31.026;2024-02-21T23:29:37;1026.6;;;5.2;71.7
55858;BME280;41779;52.360;31.026;2024-02-21T23:34:15;1026.5;;;5.2;72
55858;BME280;41779;52.360;31.026;2024-02-21T23:39:47;1026.5;;;5.3;72.1
55858;BME280;41779;52.360;31.026;2024-02-21T23:44:33;1026.4;;;5.3;71.9
55858;BME280;41779;52.360;31.026;2024-02-21T23:50:09;1026.4;;;5.3;72.2
55858;BME280;41779;52.360;31.026;2024-02-21T23:54:53;1026.4;;;5.3;72.2
55858;BME280;41779;52.360;31.026;2024-02-21T23:59:23;1026.3;;;5.3;72.2
